Hauptseite
METAR-TAF:

METAR-TAF

Flughäfen :

Oberpfaffenhofen, Deutschland

Breite: 48-05N, Länge: 011-17E, Höhe: 600 m

Beobachtung

Neuester Wetterbericht von vor 36 Minuten, um 11:20 UTC
Wind 2 kt aus unterschiedlichen Richtungen
Temperatur 17°C
Luftfeuchtigkeit 55%
Luftdruck 1025 hPa
Sichtweite 10 km oder mehr
Leicht bewölkt in der Höhe von 4200 ft

METAR: EDMO 211120Z VRB02KT 9999 FEW042 17/08 Q1025

Zeit: 13:56 (11:56 UTC)

Prognose

Neuester Wetterbericht von vor 56 Minuten, um 11:00 UTC
Gültige Prognose vom 21 um 12 UTC bis 21 um 21 UTC
Wind 5 kt aus Nordwest
Sichtweite 10 km oder mehr
Leicht bewölkt in der Höhe von 5000 ft
Übergehend zu
vom 21 um 16 UTC bis 21 um 18 UTC
Wind 2 kt aus unterschiedlichen Richtungen

TAF: EDMO 211100Z 2112/2121 31005KT 9999 FEW050 BECMG 2116/2118 VRB02KT

Wetterbeobachtungen und Prognosen von mehr als 4000 Flughäfen (METAR und TAF Bericht).

Die verfügbaren Stationen werden durch gelbe und rote Markierungen auf der Karte dargestellt.

Führen Sie die Maus auf sie, um den Namen der Station zu sehen.

Darauf klicken, um die Beobachtung von Wetterbeobachtungen und Prognosen zu sehen.

Um die Karte zu ändern : klicken Sie auf den grünen Tasten mit einem schwarzen Kreuz Zum Vergrößern, auf den grünen Button mit einem Gedankenstrich zu verkleinern, oder auf die grünen Pfeile für benachbarte Karten.


METAR-TAF: